createdAt,value
2022-10-05T00:00:23.480Z,11.8
2022-10-05T00:01:39.771Z,11.8
2022-10-05T00:02:56.067Z,11.8
2022-10-05T00:04:12.360Z,11.8
2022-10-05T00:05:28.645Z,11.8
2022-10-05T00:06:44.949Z,11.8
2022-10-05T00:08:01.247Z,11.8
2022-10-05T00:09:17.527Z,11.7
2022-10-05T00:10:33.819Z,11.8
2022-10-05T00:11:50.124Z,11.7
2022-10-05T00:13:06.420Z,11.7
2022-10-05T00:14:22.701Z,11.7
2022-10-05T00:15:38.986Z,11.7
2022-10-05T00:16:54.310Z,11.7
2022-10-05T00:18:10.592Z,11.7
2022-10-05T00:19:26.898Z,11.7
2022-10-05T00:20:43.171Z,11.6
2022-10-05T00:23:15.764Z,11.6
2022-10-05T00:24:32.053Z,11.6
2022-10-05T00:25:48.360Z,11.6
2022-10-05T00:27:03.666Z,11.6
2022-10-05T00:28:18.969Z,11.6
2022-10-05T00:29:34.294Z,11.6
2022-10-05T00:30:49.593Z,11.6
2022-10-05T00:32:05.884Z,11.6
2022-10-05T00:33:22.186Z,11.6
2022-10-05T00:34:38.476Z,11.6
2022-10-05T00:35:54.775Z,11.6
2022-10-05T00:37:11.064Z,11.6
2022-10-05T00:38:27.350Z,11.6
2022-10-05T00:39:43.636Z,11.6
2022-10-05T00:40:59.930Z,11.6
2022-10-05T00:42:16.231Z,11.6
2022-10-05T00:43:32.519Z,11.6
2022-10-05T00:44:48.806Z,11.6
2022-10-05T00:46:05.103Z,11.6
2022-10-05T00:47:20.412Z,11.6
2022-10-05T00:48:36.709Z,11.6
2022-10-05T00:49:53.004Z,11.6
2022-10-05T00:51:09.282Z,11.6
2022-10-05T00:52:25.577Z,11.6
2022-10-05T00:53:41.878Z,11.6
2022-10-05T00:54:58.181Z,11.6
2022-10-05T00:56:13.491Z,11.6
2022-10-05T00:57:28.795Z,11.6
2022-10-05T00:58:44.115Z,11.6
2022-10-05T00:59:59.422Z,11.6
2022-10-05T01:01:15.699Z,11.6
2022-10-05T01:02:31.997Z,11.6
2022-10-05T01:03:48.285Z,11.6
2022-10-05T01:05:04.594Z,11.6
2022-10-05T01:06:20.882Z,11.6
2022-10-05T01:08:53.435Z,11.5
2022-10-05T01:10:09.724Z,11.5
2022-10-05T01:11:26.005Z,11.5
2022-10-05T01:12:42.313Z,11.5
2022-10-05T01:13:58.609Z,11.4
2022-10-05T01:15:14.885Z,11.4
2022-10-05T01:16:30.193Z,11.5
2022-10-05T01:17:46.489Z,11.4
2022-10-05T01:19:02.786Z,11.4
2022-10-05T01:20:19.089Z,11.4
2022-10-05T01:21:35.370Z,11.4
2022-10-05T01:22:51.671Z,11.4
2022-10-05T01:24:07.965Z,11.4
2022-10-05T01:25:24.254Z,11.4
2022-10-05T01:26:39.572Z,11.4
2022-10-05T01:27:54.865Z,11.4
2022-10-05T01:29:10.184Z,11.5
2022-10-05T01:30:25.505Z,11.5
2022-10-05T01:31:41.791Z,11.5
2022-10-05T01:32:58.000Z,11.6
2022-10-05T01:34:14.372Z,11.6
2022-10-05T01:35:30.663Z,11.6
2022-10-05T01:36:46.956Z,11.6
2022-10-05T01:38:03.260Z,11.6
2022-10-05T01:39:19.546Z,11.7
2022-10-05T01:40:35.826Z,11.7
2022-10-05T01:41:52.136Z,11.7
2022-10-05T01:43:08.426Z,11.7
2022-10-05T01:44:24.704Z,11.7
2022-10-05T01:45:41.017Z,11.6
2022-10-05T01:46:56.326Z,11.6
2022-10-05T01:48:12.605Z,11.6
2022-10-05T01:49:28.900Z,11.6
2022-10-05T01:50:45.199Z,11.6
2022-10-05T01:52:01.478Z,11.6
2022-10-05T01:53:17.778Z,11.6
2022-10-05T01:54:34.066Z,11.6
2022-10-05T01:55:49.378Z,11.6
2022-10-05T01:57:04.699Z,11.6
2022-10-05T01:58:20.977Z,11.6
2022-10-05T01:59:37.289Z,11.5
2022-10-05T02:00:52.598Z,11.5
2022-10-05T02:02:07.892Z,11.5
2022-10-05T02:03:24.203Z,11.6
2022-10-05T02:04:40.478Z,11.5
2022-10-05T02:05:56.781Z,11.5
2022-10-05T02:07:13.072Z,11.5
2022-10-05T02:08:29.371Z,11.5
2022-10-05T02:09:45.665Z,11.5
2022-10-05T02:11:01.961Z,11.5
2022-10-05T02:12:18.250Z,11.5
2022-10-05T02:13:34.539Z,11.5
2022-10-05T02:14:50.836Z,11.5
2022-10-05T02:16:07.127Z,11.4
2022-10-05T02:17:23.411Z,11.5
2022-10-05T02:18:38.723Z,11.5
2022-10-05T02:19:55.013Z,11.4
2022-10-05T02:21:11.307Z,11.4
2022-10-05T02:22:27.600Z,11.4
2022-10-05T02:23:43.889Z,11.4
2022-10-05T02:25:00.182Z,11.3
2022-10-05T02:26:16.476Z,11.3
2022-10-05T02:27:31.804Z,11.3
2022-10-05T02:28:47.100Z,11.2
2022-10-05T02:30:03.389Z,11.2
2022-10-05T02:31:19.680Z,11.2
2022-10-05T02:32:35.980Z,11.1
2022-10-05T02:33:52.263Z,11.1
2022-10-05T02:35:08.562Z,11
2022-10-05T02:36:24.861Z,11
2022-10-05T02:37:41.152Z,11
2022-10-05T02:38:57.438Z,10.9
2022-10-05T02:41:30.036Z,10.9
2022-10-05T02:42:46.325Z,10.9
2022-10-05T02:44:02.620Z,10.9
2022-10-05T02:47:50.508Z,10.9
2022-10-05T02:49:05.829Z,10.9
2022-10-05T02:50:21.137Z,10.9
2022-10-05T02:51:36.450Z,10.9
2022-10-05T02:52:51.755Z,10.9
2022-10-05T02:54:08.042Z,10.9
2022-10-05T02:55:24.336Z,10.9
2022-10-05T02:56:40.637Z,10.9
2022-10-05T02:57:56.927Z,10.9
2022-10-05T02:59:13.212Z,10.9
2022-10-05T03:00:29.498Z,11
2022-10-05T03:01:45.793Z,10.9
2022-10-05T03:03:02.092Z,11
2022-10-05T03:04:18.377Z,11
2022-10-05T03:05:33.700Z,11
2022-10-05T03:06:49.013Z,11
2022-10-05T03:08:05.296Z,11
2022-10-05T03:09:21.604Z,11.1
2022-10-05T03:10:37.894Z,11.1
2022-10-05T03:11:54.177Z,11.1
2022-10-05T03:13:10.482Z,11.1
2022-10-05T03:14:26.763Z,11.1
2022-10-05T03:15:43.052Z,11.1
2022-10-05T03:18:15.648Z,11.2
2022-10-05T03:19:31.942Z,11.2
2022-10-05T03:20:48.226Z,11.2
2022-10-05T03:22:04.531Z,11.2
2022-10-05T03:23:19.836Z,11.2
2022-10-05T03:24:36.113Z,11.2
2022-10-05T03:25:52.419Z,11.1
2022-10-05T03:27:08.709Z,11.1
2022-10-05T03:28:25.005Z,11.1
2022-10-05T03:29:41.299Z,11.1
2022-10-05T03:30:57.589Z,11.1
2022-10-05T03:32:13.870Z,11
2022-10-05T03:33:29.190Z,11
2022-10-05T03:34:44.501Z,11
2022-10-05T03:35:59.819Z,11
2022-10-05T03:37:15.117Z,11
2022-10-05T03:38:31.411Z,11
2022-10-05T03:39:47.719Z,11
2022-10-05T03:41:04.007Z,11
2022-10-05T03:42:20.304Z,11
2022-10-05T03:43:36.599Z,11
2022-10-05T03:44:52.886Z,11
2022-10-05T03:46:09.165Z,11
2022-10-05T03:47:25.471Z,11
2022-10-05T03:48:41.755Z,11
2022-10-05T03:49:58.048Z,11
2022-10-05T03:51:14.338Z,11
2022-10-05T03:52:30.642Z,11
2022-10-05T03:53:45.936Z,11
2022-10-05T03:55:02.248Z,11
2022-10-05T03:56:17.557Z,11
2022-10-05T03:57:33.852Z,11
2022-10-05T03:58:50.148Z,11
2022-10-05T04:00:06.436Z,11
2022-10-05T04:01:22.728Z,11
2022-10-05T04:02:38.034Z,11
2022-10-05T04:03:53.349Z,11
2022-10-05T04:05:09.642Z,10.9
2022-10-05T04:06:24.959Z,11
2022-10-05T04:07:40.252Z,10.9
2022-10-05T04:08:56.561Z,10.9
2022-10-05T04:10:12.852Z,10.9
2022-10-05T04:11:29.145Z,10.9
2022-10-05T04:12:45.424Z,10.9
2022-10-05T04:14:01.716Z,10.9
2022-10-05T04:15:18.019Z,10.9
2022-10-05T04:16:34.314Z,10.9
2022-10-05T04:17:50.614Z,10.9
2022-10-05T04:19:06.897Z,10.9
2022-10-05T04:20:23.192Z,10.9
2022-10-05T04:21:39.483Z,10.9
2022-10-05T04:22:55.773Z,10.9
2022-10-05T04:24:11.094Z,10.9
2022-10-05T04:25:27.384Z,10.9
2022-10-05T04:26:43.659Z,10.9
2022-10-05T04:27:59.957Z,10.9
2022-10-05T04:29:16.247Z,10.8
2022-10-05T04:30:32.556Z,10.8
2022-10-05T04:31:48.833Z,10.9
2022-10-05T04:33:04.158Z,10.8
2022-10-05T04:34:19.456Z,10.8
2022-10-05T04:35:34.769Z,10.8
2022-10-05T04:36:50.084Z,10.8
2022-10-05T04:38:06.372Z,10.8
2022-10-05T04:39:22.666Z,10.8
2022-10-05T04:40:38.960Z,10.8
2022-10-05T04:41:55.247Z,10.8
2022-10-05T04:43:11.542Z,10.8
2022-10-05T04:44:27.834Z,10.8
2022-10-05T04:45:44.140Z,10.8
2022-10-05T04:47:00.426Z,10.9
2022-10-05T04:48:16.663Z,10.8
2022-10-05T04:49:32.914Z,10.8
2022-10-05T04:50:49.162Z,10.9
2022-10-05T04:52:05.389Z,10.8
2022-10-05T04:53:20.645Z,10.9
2022-10-05T04:54:36.896Z,10.8
2022-10-05T04:55:53.123Z,10.9
2022-10-05T04:57:09.373Z,10.9
2022-10-05T04:58:25.600Z,10.9
2022-10-05T04:59:41.842Z,10.9
2022-10-05T05:00:58.086Z,10.9
2022-10-05T05:02:13.350Z,10.9
2022-10-05T05:03:28.590Z,10.9
2022-10-05T05:04:43.868Z,10.9
2022-10-05T05:05:59.105Z,11
2022-10-05T05:07:15.353Z,11
2022-10-05T05:08:31.579Z,11
2022-10-05T05:09:47.834Z,10.9
2022-10-05T05:11:04.072Z,10.9
2022-10-05T05:12:20.302Z,10.9
2022-10-05T05:13:36.551Z,10.9
2022-10-05T05:14:52.792Z,10.9
2022-10-05T05:16:09.032Z,10.9
2022-10-05T05:17:25.261Z,10.9
2022-10-05T05:18:41.497Z,10.9
2022-10-05T05:19:57.735Z,10.9
2022-10-05T05:21:13.973Z,10.8
2022-10-05T05:22:29.239Z,10.8
2022-10-05T05:23:45.466Z,10.8
2022-10-05T05:25:01.715Z,10.8
2022-10-05T05:26:17.950Z,10.9
2022-10-05T05:27:34.184Z,10.8
2022-10-05T05:28:50.434Z,10.9
2022-10-05T05:30:06.665Z,10.8
2022-10-05T05:31:21.930Z,10.9
2022-10-05T05:32:37.176Z,10.9
2022-10-05T05:33:53.424Z,10.9
2022-10-05T05:35:09.658Z,10.9
2022-10-05T05:36:25.892Z,10.9
2022-10-05T05:37:42.135Z,10.9
2022-10-05T05:38:58.382Z,10.9
2022-10-05T05:40:14.613Z,11
2022-10-05T05:41:30.848Z,11
2022-10-05T05:42:47.099Z,11
2022-10-05T05:44:03.329Z,11
2022-10-05T05:45:19.556Z,11
2022-10-05T05:46:35.795Z,11
2022-10-05T05:47:52.033Z,11
2022-10-05T05:49:07.296Z,11
2022-10-05T05:50:23.525Z,11
2022-10-05T05:51:39.769Z,11
2022-10-05T05:52:56.021Z,11
2022-10-05T05:54:12.255Z,11
2022-10-05T05:55:28.487Z,10.9
2022-10-05T05:56:44.726Z,11
2022-10-05T05:57:59.998Z,11
2022-10-05T05:59:15.248Z,11
2022-10-05T06:00:31.489Z,11
2022-10-05T06:01:46.748Z,11.1
2022-10-05T06:03:01.990Z,11.1
2022-10-05T06:04:17.261Z,11.2
2022-10-05T06:05:32.510Z,11.3
2022-10-05T06:08:04.984Z,11.4
2022-10-05T06:09:21.226Z,11.4
2022-10-05T06:10:37.478Z,11.4
2022-10-05T06:11:53.698Z,11.4
2022-10-05T06:13:09.940Z,11.4
2022-10-05T06:14:26.000Z,11.5
2022-10-05T06:15:42.414Z,11.5
2022-10-05T06:16:58.666Z,11.5
2022-10-05T06:18:14.909Z,11.5
2022-10-05T06:19:31.138Z,11.5
2022-10-05T06:20:47.372Z,11.6
2022-10-05T06:22:02.641Z,11.6
2022-10-05T06:23:18.881Z,11.6
2022-10-05T06:24:35.109Z,11.7
2022-10-05T06:25:51.358Z,11.7
2022-10-05T06:27:07.588Z,11.7
2022-10-05T06:28:23.832Z,11.8
2022-10-05T06:29:40.063Z,11.9
2022-10-05T06:30:56.310Z,12
2022-10-05T06:32:11.572Z,12
2022-10-05T06:33:26.830Z,12.1
2022-10-05T06:34:42.081Z,12.2
2022-10-05T06:35:57.336Z,12.3
2022-10-05T06:37:13.571Z,12.4
2022-10-05T06:38:29.810Z,12.5
2022-10-05T06:39:46.058Z,12.6
2022-10-05T06:41:02.301Z,12.7
2022-10-05T06:42:18.536Z,12.8
2022-10-05T06:43:34.766Z,12.9
2022-10-05T06:44:51.001Z,13
2022-10-05T06:46:07.256Z,13.1
2022-10-05T06:47:23.483Z,13.1
2022-10-05T06:48:39.719Z,13.2
2022-10-05T06:49:55.964Z,13.2
2022-10-05T06:51:12.205Z,13.2
2022-10-05T06:52:27.460Z,13.3
2022-10-05T06:53:43.700Z,13.3
2022-10-05T06:54:59.929Z,13.4
2022-10-05T06:56:16.179Z,13.4
2022-10-05T06:57:32.401Z,13.4
2022-10-05T06:58:48.657Z,13.5
2022-10-05T07:00:04.898Z,13.5
2022-10-05T07:01:20.150Z,13.5
2022-10-05T07:02:35.404Z,13.5
2022-10-05T07:03:51.636Z,13.5
2022-10-05T07:05:06.900Z,13.5
2022-10-05T07:06:22.159Z,13.5
2022-10-05T07:07:38.387Z,13.5
2022-10-05T07:08:54.633Z,13.5
2022-10-05T07:10:10.879Z,13.5
2022-10-05T07:11:27.120Z,13.6
2022-10-05T07:13:59.592Z,13.6
2022-10-05T07:15:15.821Z,13.7
2022-10-05T07:16:32.074Z,13.8
2022-10-05T07:17:48.310Z,13.9
2022-10-05T07:19:04.536Z,14
2022-10-05T07:20:20.777Z,14.1
2022-10-05T07:21:37.014Z,14.1
2022-10-05T07:22:52.269Z,14.2
2022-10-05T07:24:08.507Z,14.3
2022-10-05T07:25:24.749Z,14.4
2022-10-05T07:26:40.999Z,14.5
2022-10-05T07:27:57.228Z,14.5
2022-10-05T07:29:13.459Z,14.6
2022-10-05T07:30:29.701Z,14.7
2022-10-05T07:31:45.939Z,14.7
2022-10-05T07:33:01.205Z,14.6
2022-10-05T07:34:16.470Z,14.6
2022-10-05T07:35:31.725Z,14.7
2022-10-05T07:36:46.965Z,14.8
2022-10-05T07:38:03.207Z,14.9
2022-10-05T07:39:19.443Z,14.9
2022-10-05T07:40:35.690Z,15
2022-10-05T07:41:51.940Z,15
2022-10-05T07:43:08.171Z,15.1
2022-10-05T07:44:24.410Z,15.1
2022-10-05T07:45:40.641Z,15.2
2022-10-05T07:46:56.879Z,15.2
2022-10-05T07:48:13.120Z,15.2
2022-10-05T07:49:29.365Z,15.4
2022-10-05T07:50:45.597Z,15.5
2022-10-05T07:52:01.849Z,15.6
2022-10-05T07:53:17.086Z,15.7
2022-10-05T07:54:33.327Z,15.9
2022-10-05T07:55:49.575Z,16
2022-10-05T07:57:05.810Z,16.2
2022-10-05T07:58:22.051Z,16.4
2022-10-05T07:59:38.294Z,16.7
2022-10-05T08:00:54.525Z,16.7
2022-10-05T08:02:09.784Z,16.8
2022-10-05T08:03:25.032Z,17
2022-10-05T08:04:41.287Z,17.1
2022-10-05T08:05:57.510Z,17.2
2022-10-05T08:07:12.769Z,17.2
2022-10-05T08:08:28.030Z,17.3
2022-10-05T08:09:44.278Z,17.3
2022-10-05T08:10:59.539Z,17.6
2022-10-05T08:12:15.774Z,17.8
2022-10-05T08:13:32.006Z,17.9
2022-10-05T08:14:48.250Z,18
2022-10-05T08:16:04.490Z,18
2022-10-05T08:17:20.717Z,18.2
2022-10-05T08:18:36.958Z,18.4
2022-10-05T08:19:53.196Z,18.5
2022-10-05T08:21:09.440Z,18.5
2022-10-05T08:22:25.684Z,18.7
2022-10-05T08:23:41.910Z,18.6
2022-10-05T08:24:58.158Z,18.4
2022-10-05T08:26:14.393Z,18.3
2022-10-05T08:27:29.650Z,18.2
2022-10-05T08:28:45.876Z,18
2022-10-05T08:30:02.126Z,17.9
2022-10-05T08:31:18.355Z,17.8
2022-10-05T08:32:34.593Z,17.9
2022-10-05T08:33:49.864Z,18
2022-10-05T08:35:05.110Z,18
2022-10-05T08:36:20.363Z,18
2022-10-05T08:37:35.633Z,18
2022-10-05T08:38:51.856Z,18
2022-10-05T08:40:08.108Z,18.1
2022-10-05T08:41:24.334Z,18
2022-10-05T08:42:40.574Z,17.9
2022-10-05T08:43:56.816Z,17.7
2022-10-05T08:45:13.063Z,17.5
2022-10-05T08:46:29.298Z,17.5
2022-10-05T08:47:45.540Z,17.7
2022-10-05T08:49:01.778Z,17.9
2022-10-05T08:50:18.008Z,18.1
2022-10-05T08:51:34.258Z,18.1
2022-10-05T08:52:50.484Z,18
2022-10-05T08:54:05.736Z,17.9
2022-10-05T08:55:21.976Z,17.9
2022-10-05T08:56:38.215Z,18.1
2022-10-05T08:57:54.453Z,18.4
2022-10-05T08:59:10.685Z,18.8
2022-10-05T09:00:26.933Z,19.2
2022-10-05T09:01:43.163Z,19.3
2022-10-05T09:02:58.431Z,19.4
2022-10-05T09:04:13.690Z,19.3
2022-10-05T09:05:28.940Z,19.2
2022-10-05T09:06:44.191Z,18.9
2022-10-05T09:08:00.439Z,18.7
2022-10-05T09:09:16.667Z,18.5
2022-10-05T09:10:32.922Z,18.4
2022-10-05T09:11:49.154Z,18.3
2022-10-05T09:13:05.394Z,18.2
2022-10-05T09:14:21.639Z,18.2
2022-10-05T09:15:37.868Z,18
2022-10-05T09:16:54.110Z,18
2022-10-05T09:18:10.338Z,18
2022-10-05T09:19:26.581Z,18
2022-10-05T09:20:42.835Z,17.9
2022-10-05T09:21:59.052Z,17.9
2022-10-05T09:23:14.319Z,17.9
2022-10-05T09:24:30.563Z,17.8
2022-10-05T09:25:46.791Z,17.8
2022-10-05T09:27:03.033Z,17.8
2022-10-05T09:28:19.276Z,17.8
2022-10-05T09:29:35.501Z,17.8
2022-10-05T09:30:51.741Z,17.9
2022-10-05T09:32:07.007Z,17.9
2022-10-05T09:33:22.265Z,17.8
2022-10-05T09:34:38.509Z,17.8
2022-10-05T09:35:54.737Z,18
2022-10-05T09:37:10.003Z,18.4
2022-10-05T09:38:25.250Z,18.9
2022-10-05T09:39:41.489Z,19.5
2022-10-05T09:40:57.732Z,19.7
2022-10-05T09:42:13.966Z,19.9
2022-10-05T09:43:30.207Z,20.1
2022-10-05T09:44:46.436Z,20.3
2022-10-05T09:46:02.678Z,20.5
2022-10-05T09:47:18.914Z,20.7
2022-10-05T09:48:35.166Z,20.8
2022-10-05T09:49:51.388Z,21
2022-10-05T09:51:07.645Z,21.1
2022-10-05T09:52:23.870Z,21
2022-10-05T09:53:40.113Z,20.8
2022-10-05T09:54:55.363Z,20.9
2022-10-05T09:56:11.615Z,21.1
2022-10-05T09:57:27.849Z,21.3
2022-10-05T09:58:44.089Z,21.6
2022-10-05T10:00:00.324Z,21.7
2022-10-05T10:01:16.563Z,21.5
2022-10-05T10:02:32.787Z,21.8
2022-10-05T10:03:48.050Z,21.6
2022-10-05T10:06:19.541Z,21.4
2022-10-05T10:07:34.812Z,21.3
2022-10-05T10:08:50.065Z,21.4
2022-10-05T10:10:05.332Z,21.6
2022-10-05T10:11:20.567Z,21.8
2022-10-05T10:12:36.826Z,21.9
2022-10-05T10:13:53.059Z,21.9
2022-10-05T10:15:09.299Z,22.2
2022-10-05T10:16:25.539Z,22.3
2022-10-05T10:17:41.764Z,22.4
2022-10-05T10:18:58.017Z,23
2022-10-05T10:20:14.253Z,23.3
2022-10-05T10:21:30.479Z,23.4
2022-10-05T10:22:46.716Z,23.7
2022-10-05T10:24:02.954Z,23.8
2022-10-05T10:25:19.208Z,24.5
2022-10-05T10:26:35.432Z,24.7
2022-10-05T10:27:50.695Z,25.1
2022-10-05T10:29:06.922Z,24.4
2022-10-05T10:30:23.166Z,24.5
2022-10-05T10:31:39.407Z,24.1
2022-10-05T10:32:55.648Z,24
2022-10-05T10:34:11.893Z,24.1
2022-10-05T10:36:44.364Z,24.2
2022-10-05T10:37:59.627Z,24.3
2022-10-05T10:39:14.876Z,24.6
2022-10-05T10:40:30.130Z,25.1
2022-10-05T10:41:45.397Z,25.3
2022-10-05T10:43:01.623Z,25.2
2022-10-05T10:44:17.873Z,25
2022-10-05T10:45:34.114Z,24.8
2022-10-05T10:46:50.355Z,24.8
2022-10-05T10:48:06.586Z,25
2022-10-05T10:49:22.832Z,25.1
2022-10-05T10:50:39.064Z,25.4
2022-10-05T10:51:55.304Z,25.8
2022-10-05T10:53:11.531Z,26.1
2022-10-05T10:54:27.785Z,26.1
2022-10-05T10:55:44.019Z,26.2
2022-10-05T10:57:00.258Z,26.6
2022-10-05T10:58:15.516Z,26.7
2022-10-05T10:59:31.741Z,26.1
2022-10-05T11:00:47.980Z,26
2022-10-05T11:02:04.216Z,26.1
2022-10-05T11:03:20.469Z,26
2022-10-05T11:04:36.711Z,25.9
2022-10-05T11:05:52.935Z,25.9
2022-10-05T11:07:08.202Z,25.6
2022-10-05T11:08:23.461Z,25.5
2022-10-05T11:09:39.704Z,25.1
2022-10-05T11:10:55.946Z,24.9
2022-10-05T11:12:12.173Z,24.9
2022-10-05T11:13:28.420Z,25.1
2022-10-05T11:14:44.655Z,25.4
2022-10-05T11:16:00.891Z,25.4
2022-10-05T11:17:17.139Z,25.8
2022-10-05T11:18:33.359Z,26.2
2022-10-05T11:19:49.606Z,26.5
2022-10-05T11:21:05.855Z,26.5
2022-10-05T11:22:22.084Z,26.4
2022-10-05T11:23:38.321Z,26.7
2022-10-05T11:24:53.575Z,26.8
2022-10-05T11:26:09.815Z,26.8
2022-10-05T11:27:26.052Z,26.6
2022-10-05T11:28:42.297Z,26.4
2022-10-05T11:29:58.541Z,25.7
2022-10-05T11:31:14.771Z,25.2
2022-10-05T11:32:31.016Z,24.9
2022-10-05T11:33:46.273Z,24.7
2022-10-05T11:35:01.535Z,24.4
2022-10-05T11:36:17.758Z,24.2
2022-10-05T11:37:34.012Z,23.8
2022-10-05T11:38:50.248Z,23.6
2022-10-05T11:40:06.484Z,23.5
2022-10-05T11:41:22.715Z,23.5
2022-10-05T11:42:38.967Z,23.4
2022-10-05T11:43:55.189Z,23.4
2022-10-05T11:45:11.431Z,23.8
2022-10-05T11:46:27.682Z,24.1
2022-10-05T11:47:43.923Z,24.4
2022-10-05T11:49:00.156Z,24.6
2022-10-05T11:50:16.399Z,24.2
2022-10-05T11:51:31.647Z,23.7
2022-10-05T11:52:47.886Z,23.6
2022-10-05T11:54:04.125Z,23.6
2022-10-05T11:55:19.391Z,23.3
2022-10-05T11:56:34.640Z,23.3
2022-10-05T11:57:49.890Z,23.2
2022-10-05T11:59:05.145Z,22.9
2022-10-05T12:00:20.422Z,22.9
2022-10-05T12:01:35.667Z,22.8
2022-10-05T12:02:50.938Z,22.7
2022-10-05T12:04:06.183Z,22.7
2022-10-05T12:05:22.426Z,22.7
2022-10-05T12:06:38.650Z,22.6
2022-10-05T12:07:54.892Z,22.5
2022-10-05T12:09:11.136Z,22.6
2022-10-05T12:10:27.380Z,22.7
2022-10-05T12:11:43.607Z,22.7
2022-10-05T12:12:59.845Z,22.6
2022-10-05T12:14:16.096Z,22.7
2022-10-05T12:15:32.321Z,23
2022-10-05T12:16:48.567Z,23
2022-10-05T12:18:04.797Z,23
2022-10-05T12:19:21.040Z,23.1
2022-10-05T12:20:36.293Z,23.3
2022-10-05T12:21:52.533Z,23.8
2022-10-05T12:23:08.775Z,24.2
2022-10-05T12:24:25.014Z,24.6
2022-10-05T12:25:40.272Z,25
2022-10-05T12:26:56.504Z,25.2
2022-10-05T12:28:12.751Z,25.6
2022-10-05T12:29:28.018Z,25.5
2022-10-05T12:30:43.268Z,25.7
2022-10-05T12:31:58.539Z,25.9
2022-10-05T12:33:13.795Z,26
2022-10-05T12:34:30.026Z,26.2
2022-10-05T12:35:46.251Z,26.3
2022-10-05T12:37:02.500Z,26.3
2022-10-05T12:38:18.738Z,26.2
2022-10-05T12:39:34.970Z,26.2
2022-10-05T12:40:51.206Z,26.1
2022-10-05T12:42:07.464Z,26.1
2022-10-05T12:44:39.926Z,26.1
2022-10-05T12:45:56.179Z,26.3
2022-10-05T12:47:12.414Z,26.5
2022-10-05T12:48:28.650Z,26.6
2022-10-05T12:49:43.900Z,26.7
2022-10-05T12:51:00.146Z,26.6
2022-10-05T12:52:16.377Z,26.6
2022-10-05T12:53:32.610Z,26.6
2022-10-05T12:54:48.856Z,26.5
2022-10-05T12:56:05.095Z,26.7
2022-10-05T12:57:21.333Z,26.9
2022-10-05T12:58:37.569Z,27
2022-10-05T12:59:52.823Z,26.8
2022-10-05T13:01:08.080Z,26.7
2022-10-05T13:02:23.342Z,26.6
2022-10-05T13:03:38.594Z,26.5
2022-10-05T13:04:54.835Z,26.5
2022-10-05T13:06:11.081Z,26.7
2022-10-05T13:07:27.322Z,26.8
2022-10-05T13:08:43.564Z,26.7
2022-10-05T13:09:59.796Z,26.6
2022-10-05T13:11:16.034Z,26.6
2022-10-05T13:12:32.275Z,26.6
2022-10-05T13:13:48.508Z,26.5
2022-10-05T13:15:04.750Z,26.7
2022-10-05T13:16:20.990Z,26.8
2022-10-05T13:17:37.224Z,26.7
2022-10-05T13:18:53.466Z,26.5
2022-10-05T13:20:08.723Z,26.6
2022-10-05T13:21:24.962Z,26.6
2022-10-05T13:22:41.195Z,26.6
2022-10-05T13:23:57.442Z,26.6
2022-10-05T13:25:13.679Z,26.6
2022-10-05T13:26:29.912Z,26.5
2022-10-05T13:27:46.151Z,26.3
2022-10-05T13:29:01.423Z,26.2
2022-10-05T13:30:16.670Z,26.2
2022-10-05T13:31:31.929Z,26.3
2022-10-05T13:32:47.193Z,26.3
2022-10-05T13:34:03.418Z,26.1
2022-10-05T13:35:19.658Z,25.9
2022-10-05T13:36:35.900Z,25.6
2022-10-05T13:37:52.152Z,25
2022-10-05T13:39:08.385Z,25
2022-10-05T13:40:24.611Z,24.8
2022-10-05T13:41:40.849Z,24.7
2022-10-05T13:42:57.091Z,24.6
2022-10-05T13:44:13.330Z,24.6
2022-10-05T13:45:29.576Z,24.5
2022-10-05T13:46:45.811Z,24.2
2022-10-05T13:48:02.055Z,24.2
2022-10-05T13:49:17.298Z,24.3
2022-10-05T13:50:33.535Z,24.3
2022-10-05T13:51:49.774Z,24.3
2022-10-05T13:53:06.027Z,24.3
2022-10-05T13:54:22.257Z,24.4
2022-10-05T13:55:38.498Z,24.5
2022-10-05T13:56:54.745Z,24.6
2022-10-05T13:58:10.008Z,24.5
2022-10-05T13:59:25.261Z,24.4
2022-10-05T14:00:40.512Z,24
2022-10-05T14:01:55.771Z,23.8
2022-10-05T14:03:12.015Z,23.7
2022-10-05T14:04:28.255Z,23.6
2022-10-05T14:05:44.493Z,23.5
2022-10-05T14:08:16.971Z,23.6
2022-10-05T14:09:33.200Z,23.6
2022-10-05T14:10:49.443Z,23.8
2022-10-05T14:12:05.680Z,23.9
2022-10-05T14:13:21.923Z,24.1
2022-10-05T14:14:38.151Z,24.2
2022-10-05T14:15:54.392Z,24.2
2022-10-05T14:17:10.641Z,24.3
2022-10-05T14:18:25.885Z,24.2
2022-10-05T14:19:42.133Z,24.1
2022-10-05T14:20:58.371Z,24.1
2022-10-05T14:22:14.604Z,23.9
2022-10-05T14:23:30.833Z,23.7
2022-10-05T14:24:47.073Z,23.7
2022-10-05T14:26:03.313Z,23.8
2022-10-05T14:27:19.563Z,24
2022-10-05T14:28:34.829Z,24.2
2022-10-05T14:29:50.065Z,24.3
2022-10-05T14:31:06.318Z,24.3
2022-10-05T14:32:22.557Z,24.4
2022-10-05T14:33:38.784Z,24.5
2022-10-05T14:34:55.032Z,24.6
2022-10-05T14:36:11.261Z,24.5
2022-10-05T14:37:27.502Z,24.3
2022-10-05T14:38:43.750Z,24.1
2022-10-05T14:39:59.983Z,24
2022-10-05T14:41:16.223Z,23.9
2022-10-05T14:42:32.451Z,23.6
2022-10-05T14:43:48.702Z,23.5
2022-10-05T14:45:04.944Z,23.4
2022-10-05T14:46:20.186Z,23.5
2022-10-05T14:47:36.431Z,23.5
2022-10-05T14:48:52.661Z,23.5
2022-10-05T14:50:08.908Z,23.6
2022-10-05T14:51:25.148Z,23.7
2022-10-05T14:52:41.384Z,23.6
2022-10-05T14:53:57.618Z,23.5
2022-10-05T14:55:12.876Z,23.5
2022-10-05T14:56:28.133Z,23.5
2022-10-05T14:57:44.381Z,23.4
2022-10-05T14:59:00.622Z,23.4
2022-10-05T15:00:16.864Z,23.4
2022-10-05T15:01:33.096Z,23.3
2022-10-05T15:02:49.324Z,23.4
2022-10-05T15:04:05.563Z,23.3
2022-10-05T15:05:21.821Z,23.2
2022-10-05T15:06:38.044Z,22.9
2022-10-05T15:07:54.285Z,22.6
2022-10-05T15:09:10.534Z,22.4
2022-10-05T15:10:26.774Z,22.1
2022-10-05T15:11:43.013Z,22
2022-10-05T15:12:58.255Z,21.8
2022-10-05T15:14:14.490Z,21.6
2022-10-05T15:15:30.736Z,21.4
2022-10-05T15:16:46.969Z,21.3
2022-10-05T15:18:03.208Z,21.3
2022-10-05T15:19:19.444Z,21.1
2022-10-05T15:20:35.689Z,21.1
2022-10-05T15:21:50.953Z,21.1
2022-10-05T15:23:06.210Z,21
2022-10-05T15:24:22.446Z,20.9
2022-10-05T15:25:38.691Z,20.9
2022-10-05T15:26:54.919Z,20.9
2022-10-05T15:28:11.160Z,20.8
2022-10-05T15:29:27.405Z,20.7
2022-10-05T15:30:43.637Z,20.7
2022-10-05T15:31:59.872Z,20.7
2022-10-05T15:33:16.119Z,20.6
2022-10-05T15:34:32.357Z,20.5
2022-10-05T15:35:48.590Z,20.4
2022-10-05T15:37:04.840Z,20.4
2022-10-05T15:38:21.076Z,20.4
2022-10-05T15:39:36.314Z,20.3
2022-10-05T15:40:52.555Z,20.2
2022-10-05T15:42:08.000Z,20.2
2022-10-05T15:43:25.036Z,20.2
2022-10-05T15:44:41.282Z,20.1
2022-10-05T15:45:57.508Z,20.1
2022-10-05T15:47:13.745Z,20
2022-10-05T15:48:29.020Z,20
2022-10-05T15:49:44.265Z,19.9
2022-10-05T15:51:00.506Z,19.9
2022-10-05T15:52:16.739Z,19.9
2022-10-05T15:53:32.976Z,19.9
2022-10-05T15:54:49.218Z,19.8
2022-10-05T15:56:05.466Z,19.8
2022-10-05T15:57:21.698Z,19.7
2022-10-05T15:58:37.928Z,19.6
2022-10-05T15:59:54.185Z,19.6
2022-10-05T16:01:10.415Z,19.6
2022-10-05T16:02:26.654Z,19.5
2022-10-05T16:03:42.898Z,19.4
2022-10-05T16:04:59.132Z,19.4
2022-10-05T16:06:14.385Z,19.4
2022-10-05T16:07:30.624Z,19.3
2022-10-05T16:08:46.856Z,19.3
2022-10-05T16:10:03.100Z,19.3
2022-10-05T16:11:19.328Z,19.2
2022-10-05T16:12:35.579Z,19.2
2022-10-05T16:13:51.821Z,19.1
2022-10-05T16:15:08.047Z,19.1
2022-10-05T16:16:24.294Z,19.1
2022-10-05T16:17:40.525Z,19
2022-10-05T16:18:56.777Z,19
2022-10-05T16:20:13.014Z,18.9
2022-10-05T16:21:29.239Z,18.9
2022-10-05T16:22:44.511Z,18.9
2022-10-05T16:24:00.733Z,18.9
2022-10-05T16:25:16.971Z,18.8
2022-10-05T16:26:33.215Z,18.8
2022-10-05T16:27:49.456Z,18.8
2022-10-05T16:29:05.686Z,18.7
2022-10-05T16:30:21.928Z,18.7
2022-10-05T16:31:38.173Z,18.7
2022-10-05T16:32:54.398Z,18.7
2022-10-05T16:34:10.656Z,18.6
2022-10-05T16:35:26.891Z,18.6
2022-10-05T16:36:43.125Z,18.6
2022-10-05T16:37:59.355Z,18.5
2022-10-05T16:39:14.617Z,18.5
2022-10-05T16:40:29.885Z,18.5
2022-10-05T16:41:46.116Z,18.4
2022-10-05T16:43:02.361Z,18.4
2022-10-05T16:44:18.588Z,18.4
2022-10-05T16:45:34.834Z,18.3
2022-10-05T16:46:51.073Z,18.3
2022-10-05T16:48:07.312Z,18.2
2022-10-05T16:49:23.548Z,18.2
2022-10-05T16:50:39.780Z,18.1
2022-10-05T16:51:56.023Z,18.2
2022-10-05T16:53:12.255Z,18.2
2022-10-05T16:54:28.489Z,18.1
2022-10-05T16:55:44.742Z,18.1
2022-10-05T16:56:59.984Z,18.1
2022-10-05T16:58:16.229Z,18
2022-10-05T16:59:32.471Z,18.1
2022-10-05T17:00:48.701Z,18
2022-10-05T17:02:04.945Z,18
2022-10-05T17:03:21.181Z,18
2022-10-05T17:04:37.425Z,18
2022-10-05T17:05:53.665Z,18
2022-10-05T17:07:09.893Z,17.9
2022-10-05T17:08:26.131Z,17.9
2022-10-05T17:09:42.384Z,17.9
2022-10-05T17:10:58.608Z,17.9
2022-10-05T17:12:14.860Z,17.8
2022-10-05T17:13:30.169Z,17.8
2022-10-05T17:14:46.444Z,17.8
2022-10-05T17:16:02.741Z,17.8